Time;durP1;ratioP1;P1;durP2;ratioP2;P2;SDS_P1;SDS_P2;PMS_P1;PMS_P2;Temp;Humidity;BMP_temperature;BMP_pressure;BME280_temperature;BME280_humidity;BME280_pressure;Samples;Min_cycle;Max_cycle;Signal;HPM_P1;HPM_P2
2021/07/08 00:00:33;;;;;;;1.47;1.16;;;;;;;21.38;70.39;100684.74;;;;-64
2021/07/08 00:03:31;;;;;;;1.39;1.25;;;;;;;21.38;70.33;100682.22;;;;-65
2021/07/08 00:06:31;;;;;;;1.49;1.27;;;;;;;21.37;70.28;100674.88;;;;-65
2021/07/08 00:09:31;;;;;;;1.21;1.11;;;;;;;21.37;70.33;100679.67;;;;-64
2021/07/08 00:12:31;;;;;;;1.60;1.40;;;;;;;21.37;70.30;100684.80;;;;-65
2021/07/08 00:15:31;;;;;;;1.35;1.20;;;;;;;21.36;70.33;100686.53;;;;-65
2021/07/08 00:18:31;;;;;;;1.21;1.11;;;;;;;21.36;70.32;100680.50;;;;-65
2021/07/08 00:21:31;;;;;;;1.23;1.10;;;;;;;21.35;70.35;100673.25;;;;-65
2021/07/08 00:24:31;;;;;;;1.41;1.15;;;;;;;21.35;70.26;100671.27;;;;-66
2021/07/08 00:27:31;;;;;;;1.34;1.25;;;;;;;21.35;70.24;100670.21;;;;-65
2021/07/08 00:30:31;;;;;;;1.47;1.17;;;;;;;21.35;70.36;100672.50;;;;-65
2021/07/08 00:33:31;;;;;;;1.17;1.10;;;;;;;21.34;70.27;100674.55;;;;-65
2021/07/08 00:36:31;;;;;;;2.55;1.41;;;;;;;21.33;70.28;100679.74;;;;-59
2021/07/08 00:39:31;;;;;;;1.24;1.14;;;;;;;21.33;70.30;100682.60;;;;-60
2021/07/08 00:42:31;;;;;;;1.35;1.20;;;;;;;21.32;70.29;100681.95;;;;-59
2021/07/08 00:45:31;;;;;;;1.29;1.13;;;;;;;21.32;70.34;100677.95;;;;-60
2021/07/08 00:48:31;;;;;;;1.41;1.10;;;;;;;21.32;70.30;100668.27;;;;-59
2021/07/08 00:51:31;;;;;;;1.49;1.10;;;;;;;21.31;70.36;100669.88;;;;-60
2021/07/08 00:54:31;;;;;;;1.01;1.00;;;;;;;21.30;70.38;100668.08;;;;-60
2021/07/08 00:57:31;;;;;;;1.19;1.08;;;;;;;21.30;70.38;100668.25;;;;-60
2021/07/08 01:00:31;;;;;;;1.30;1.20;;;;;;;21.31;70.29;100667.84;;;;-59
2021/07/08 01:03:31;;;;;;;1.47;1.18;;;;;;;21.29;70.38;100667.77;;;;-60
2021/07/08 01:06:31;;;;;;;1.30;1.20;;;;;;;21.29;70.38;100672.83;;;;-59
2021/07/08 01:09:31;;;;;;;1.30;1.20;;;;;;;21.30;70.32;100671.27;;;;-58
2021/07/08 01:12:31;;;;;;;1.38;1.20;;;;;;;21.29;70.38;100666.86;;;;-60
2021/07/08 01:15:31;;;;;;;1.44;1.31;;;;;;;21.28;70.32;100662.55;;;;-59
2021/07/08 01:18:31;;;;;;;1.53;1.23;;;;;;;21.28;70.28;100657.66;;;;-59
2021/07/08 01:21:31;;;;;;;1.25;1.15;;;;;;;21.28;70.32;100639.31;;;;-60
2021/07/08 01:24:31;;;;;;;1.11;1.07;;;;;;;21.28;70.31;100621.55;;;;-58
2021/07/08 01:27:31;;;;;;;1.17;1.07;;;;;;;21.26;70.35;100624.88;;;;-52
2021/07/08 01:30:31;;;;;;;1.53;1.14;;;;;;;21.27;70.33;100625.77;;;;-51
2021/07/08 01:33:31;;;;;;;1.21;1.11;;;;;;;21.26;70.30;100634.17;;;;-52
2021/07/08 01:36:31;;;;;;;1.86;1.20;;;;;;;21.26;70.29;100645.59;;;;-52
2021/07/08 01:39:31;;;;;;;1.20;1.10;;;;;;;21.26;70.33;100654.95;;;;-53
2021/07/08 01:42:31;;;;;;;1.24;1.17;;;;;;;21.26;70.29;100643.23;;;;-51
2021/07/08 01:45:31;;;;;;;1.36;1.10;;;;;;;21.26;70.27;100629.53;;;;-53
2021/07/08 01:48:31;;;;;;;1.07;1.07;;;;;;;21.25;70.34;100619.75;;;;-53
2021/07/08 01:51:31;;;;;;;1.40;1.20;;;;;;;21.25;70.35;100620.25;;;;-51
2021/07/08 01:54:31;;;;;;;1.89;1.21;;;;;;;21.24;70.25;100630.74;;;;-51
2021/07/08 01:57:31;;;;;;;1.09;1.05;;;;;;;21.24;70.36;100629.69;;;;-52
2021/07/08 02:00:31;;;;;;;1.27;1.18;;;;;;;21.24;70.35;100627.48;;;;-52
2021/07/08 02:03:31;;;;;;;1.30;1.20;;;;;;;21.24;70.31;100626.11;;;;-53
2021/07/08 02:06:31;;;;;;;1.03;1.03;;;;;;;21.24;70.28;100626.59;;;;-51
2021/07/08 02:09:31;;;;;;;1.09;1.05;;;;;;;21.24;70.31;100631.97;;;;-51
2021/07/08 02:12:31;;;;;;;1.32;1.22;;;;;;;21.24;70.26;100629.20;;;;-59
2021/07/08 02:15:31;;;;;;;1.10;1.10;;;;;;;21.23;70.29;100626.09;;;;-58
2021/07/08 02:18:31;;;;;;;1.17;1.12;;;;;;;21.23;70.34;100624.97;;;;-59
2021/07/08 02:21:31;;;;;;;1.57;1.20;;;;;;;21.23;70.34;100625.59;;;;-60
2021/07/08 02:24:31;;;;;;;1.10;1.10;;;;;;;21.22;70.31;100635.95;;;;-58
2021/07/08 02:27:31;;;;;;;1.22;1.11;;;;;;;21.22;70.35;100647.94;;;;-59
2021/07/08 02:30:31;;;;;;;1.12;1.12;;;;;;;21.21;70.34;100645.91;;;;-59
2021/07/08 02:33:31;;;;;;;1.20;1.10;;;;;;;21.21;70.31;100629.94;;;;-59
2021/07/08 02:36:31;;;;;;;1.10;1.10;;;;;;;21.22;70.37;100618.52;;;;-60
2021/07/08 02:39:31;;;;;;;1.23;1.10;;;;;;;21.21;70.29;100607.94;;;;-58
2021/07/08 02:42:31;;;;;;;1.31;1.21;;;;;;;21.21;70.31;100603.37;;;;-59
2021/07/08 02:45:31;;;;;;;1.25;1.15;;;;;;;21.21;70.31;100605.73;;;;-54
2021/07/08 02:48:31;;;;;;;1.19;1.09;;;;;;;21.20;70.35;100608.32;;;;-54
2021/07/08 02:51:31;;;;;;;1.19;1.06;;;;;;;21.20;70.34;100609.30;;;;-54
2021/07/08 02:54:31;;;;;;;1.10;1.10;;;;;;;21.20;70.36;100614.19;;;;-54
2021/07/08 02:57:31;;;;;;;1.21;1.14;;;;;;;21.19;70.32;100619.50;;;;-54
2021/07/08 03:00:31;;;;;;;1.07;1.01;;;;;;;21.19;70.32;100630.42;;;;-54
2021/07/08 03:03:31;;;;;;;1.25;1.15;;;;;;;21.19;70.35;100635.63;;;;-54
2021/07/08 03:06:31;;;;;;;1.43;1.14;;;;;;;21.19;70.32;100644.84;;;;-54
2021/07/08 03:09:31;;;;;;;1.26;1.16;;;;;;;21.19;70.35;100646.23;;;;-65
2021/07/08 03:12:31;;;;;;;1.27;1.08;;;;;;;21.18;70.35;100640.91;;;;-65
2021/07/08 03:15:31;;;;;;;1.19;1.04;;;;;;;21.19;70.33;100638.98;;;;-65
2021/07/08 03:18:31;;;;;;;1.22;1.10;;;;;;;21.19;70.26;100642.89;;;;-65
2021/07/08 03:21:31;;;;;;;1.25;1.10;;;;;;;21.18;70.22;100623.48;;;;-65
2021/07/08 03:24:31;;;;;;;1.10;1.10;;;;;;;21.17;70.35;100619.89;;;;-66
2021/07/08 03:27:31;;;;;;;1.17;1.11;;;;;;;21.18;70.30;100632.69;;;;-65
2021/07/08 03:30:31;;;;;;;1.15;1.04;;;;;;;21.17;70.32;100639.95;;;;-66
2021/07/08 03:33:31;;;;;;;1.39;1.10;;;;;;;21.18;70.35;100641.73;;;;-65
2021/07/08 03:36:31;;;;;;;2.08;1.21;;;;;;;21.18;70.30;100648.17;;;;-65
2021/07/08 03:39:31;;;;;;;1.23;1.13;;;;;;;21.17;70.33;100646.63;;;;-65
2021/07/08 03:42:31;;;;;;;1.19;1.07;;;;;;;21.17;70.38;100650.22;;;;-65
2021/07/08 03:45:31;;;;;;;1.11;1.10;;;;;;;21.17;70.27;100653.72;;;;-65
2021/07/08 03:48:31;;;;;;;1.15;1.10;;;;;;;21.17;70.25;100658.13;;;;-65
2021/07/08 03:51:31;;;;;;;1.25;1.10;;;;;;;21.16;70.31;100657.54;;;;-66
2021/07/08 03:54:31;;;;;;;1.13;1.10;;;;;;;21.16;70.30;100659.73;;;;-65
2021/07/08 03:57:31;;;;;;;1.11;1.10;;;;;;;21.16;70.29;100655.91;;;;-65
2021/07/08 04:00:31;;;;;;;1.06;1.06;;;;;;;21.15;70.28;100647.20;;;;-51
2021/07/08 04:03:31;;;;;;;1.20;1.10;;;;;;;21.16;70.31;100639.70;;;;-51
2021/07/08 04:06:31;;;;;;;1.10;1.10;;;;;;;21.15;70.31;100632.69;;;;-51
2021/07/08 04:09:31;;;;;;;11.05;1.51;;;;;;;21.16;70.81;100627.87;;;;-47
2021/07/08 04:12:31;;;;;;;6.03;2.00;;;;;;;21.10;72.00;100624.43;;;;-49
2021/07/08 04:15:31;;;;;;;2.32;2.10;;;;;;;21.11;72.10;100615.57;;;;-49
2021/07/08 04:18:31;;;;;;;2.95;1.97;;;;;;;21.07;72.28;100608.88;;;;-58
2021/07/08 04:21:31;;;;;;;2.37;1.96;;;;;;;20.97;72.58;100601.52;;;;-52
2021/07/08 04:24:31;;;;;;;3.86;2.02;;;;;;;20.95;72.68;100599.63;;;;-58
2021/07/08 04:27:31;;;;;;;2.58;2.16;;;;;;;20.91;72.77;100601.98;;;;-58
2021/07/08 04:30:31;;;;;;;2.51;2.31;;;;;;;20.88;72.97;100607.45;;;;-57
2021/07/08 04:33:31;;;;;;;6.45;2.46;;;;;;;20.81;73.49;100592.67;;;;-57
2021/07/08 04:36:31;;;;;;;4.87;2.45;;;;;;;20.77;73.57;100572.32;;;;-58
2021/07/08 04:39:31;;;;;;;2.77;2.56;;;;;;;20.77;73.65;100555.44;;;;-57
2021/07/08 04:42:31;;;;;;;2.60;2.40;;;;;;;20.72;73.75;100565.94;;;;-57
2021/07/08 04:45:31;;;;;;;3.76;2.25;;;;;;;20.71;73.75;100598.44;;;;-58
2021/07/08 04:48:31;;;;;;;3.11;2.10;;;;;;;20.71;73.95;100619.70;;;;-56
2021/07/08 04:51:31;;;;;;;3.13;2.21;;;;;;;20.73;74.30;100636.95;;;;-58
2021/07/08 04:54:31;;;;;;;2.61;2.12;;;;;;;20.73;74.43;100643.24;;;;-58
2021/07/08 04:57:30;;;;;;;3.94;2.13;;;;;;;20.72;74.42;100638.50;;;;-58
2021/07/08 05:00:31;;;;;;;4.87;2.10;;;;;;;20.73;74.52;100632.88;;;;-57
2021/07/08 05:03:30;;;;;;;4.22;2.27;;;;;;;20.69;74.61;100633.37;;;;-56
2021/07/08 05:06:31;;;;;;;2.94;2.46;;;;;;;20.65;74.89;100637.91;;;;-58
2021/07/08 05:09:31;;;;;;;3.11;2.45;;;;;;;20.67;74.97;100634.91;;;;-57
2021/07/08 05:12:31;;;;;;;3.85;2.33;;;;;;;20.62;74.94;100636.01;;;;-57
2021/07/08 05:15:31;;;;;;;2.88;2.25;;;;;;;20.63;74.53;100638.45;;;;-56
2021/07/08 05:18:31;;;;;;;2.49;2.27;;;;;;;20.65;74.35;100643.13;;;;-56
2021/07/08 05:21:31;;;;;;;3.89;2.19;;;;;;;20.67;74.22;100653.06;;;;-57
2021/07/08 05:24:31;;;;;;;3.24;2.23;;;;;;;20.71;74.01;100656.73;;;;-57
2021/07/08 05:27:31;;;;;;;3.35;2.29;;;;;;;20.73;73.91;100664.02;;;;-58
2021/07/08 05:30:31;;;;;;;3.34;2.29;;;;;;;20.74;73.80;100669.87;;;;-56
2021/07/08 05:33:31;;;;;;;5.64;2.24;;;;;;;20.76;73.63;100679.08;;;;-61
2021/07/08 05:36:30;;;;;;;2.29;2.09;;;;;;;20.78;73.40;100683.73;;;;-61
2021/07/08 05:39:31;;;;;;;3.98;2.05;;;;;;;20.79;73.37;100685.68;;;;-61
2021/07/08 05:42:30;;;;;;;3.77;2.03;;;;;;;20.79;73.23;100686.33;;;;-61
2021/07/08 05:45:31;;;;;;;2.77;2.11;;;;;;;20.80;73.10;100695.31;;;;-61
2021/07/08 05:48:31;;;;;;;3.03;2.09;;;;;;;20.81;73.07;100696.44;;;;-62
2021/07/08 05:51:31;;;;;;;2.35;2.12;;;;;;;20.81;73.04;100695.30;;;;-61
2021/07/08 05:54:31;;;;;;;2.67;1.98;;;;;;;20.83;72.89;100699.47;;;;-62
2021/07/08 05:57:31;;;;;;;3.33;2.00;;;;;;;20.82;72.92;100710.47;;;;-61
2021/07/08 06:00:31;;;;;;;2.64;2.01;;;;;;;20.83;72.81;100702.88;;;;-61
2021/07/08 06:03:31;;;;;;;2.19;1.98;;;;;;;20.84;72.80;100699.65;;;;-61
2021/07/08 06:06:30;;;;;;;3.41;2.14;;;;;;;20.84;72.70;100701.36;;;;-61
2021/07/08 06:09:31;;;;;;;2.21;1.87;;;;;;;20.84;72.68;100711.30;;;;-61
2021/07/08 06:12:30;;;;;;;3.39;1.93;;;;;;;20.85;72.60;100715.61;;;;-62
2021/07/08 06:15:31;;;;;;;3.75;2.12;;;;;;;20.85;72.51;100714.22;;;;-60
2021/07/08 06:18:30;;;;;;;3.25;1.92;;;;;;;20.86;72.69;100718.06;;;;-52
2021/07/08 06:21:30;;;;;;;2.46;1.94;;;;;;;20.87;72.46;100727.34;;;;-52
2021/07/08 06:24:30;;;;;;;2.68;1.97;;;;;;;20.88;72.26;100726.80;;;;-51
2021/07/08 06:27:31;;;;;;;1.95;1.85;;;;;;;20.88;72.41;100736.89;;;;-52
2021/07/08 06:30:30;;;;;;;2.21;1.91;;;;;;;20.88;72.35;100742.11;;;;-52
2021/07/08 06:33:31;;;;;;;3.13;2.17;;;;;;;20.88;72.42;100749.20;;;;-52
2021/07/08 06:36:30;;;;;;;3.08;1.97;;;;;;;20.89;72.74;100749.76;;;;-56
2021/07/08 06:39:30;;;;;;;3.23;2.00;;;;;;;20.88;72.32;100748.78;;;;-55
2021/07/08 06:42:31;;;;;;;3.92;2.05;;;;;;;20.89;72.21;100746.91;;;;-55
2021/07/08 06:45:35;;;;;;;2.39;1.91;;;;;;;20.89;72.18;100747.55;;;;-56
2021/07/08 06:48:30;;;;;;;2.92;1.89;;;;;;;20.90;72.19;100754.50;;;;-55
2021/07/08 06:51:31;;;;;;;3.71;1.98;;;;;;;20.90;72.31;100751.81;;;;-52
2021/07/08 06:54:30;;;;;;;2.01;1.78;;;;;;;20.90;72.24;100748.56;;;;-51
2021/07/08 06:57:30;;;;;;;2.31;1.90;;;;;;;20.90;72.21;100739.35;;;;-52
2021/07/08 07:00:31;;;;;;;2.30;1.82;;;;;;;20.90;72.08;100730.31;;;;-53
2021/07/08 07:03:34;;;;;;;3.79;1.75;;;;;;;20.90;72.16;100722.16;;;;-53
2021/07/08 07:06:31;;;;;;;2.43;1.93;;;;;;;20.91;72.10;100718.81;;;;-53
2021/07/08 07:09:31;;;;;;;3.29;1.87;;;;;;;20.90;72.13;100725.42;;;;-68
2021/07/08 07:12:30;;;;;;;3.59;1.94;;;;;;;20.91;71.93;100721.02;;;;-66
2021/07/08 07:15:31;;;;;;;2.14;1.89;;;;;;;20.90;71.98;100714.98;;;;-66
2021/07/08 07:18:30;;;;;;;3.19;1.68;;;;;;;20.91;71.93;100720.36;;;;-59
2021/07/08 07:21:30;;;;;;;3.08;1.89;;;;;;;20.90;71.92;100719.14;;;;-58
2021/07/08 07:24:31;;;;;;;2.69;1.90;;;;;;;20.91;71.90;100725.41;;;;-58
2021/07/08 07:27:30;;;;;;;2.00;1.80;;;;;;;20.91;71.91;100726.80;;;;-58
2021/07/08 07:30:31;;;;;;;3.24;1.75;;;;;;;20.91;71.86;100731.59;;;;-58
2021/07/08 07:33:30;;;;;;;2.49;1.81;;;;;;;20.91;71.78;100728.02;;;;-55
2021/07/08 07:36:31;;;;;;;2.31;1.91;;;;;;;20.93;72.07;100715.97;;;;-52
2021/07/08 07:39:30;;;;;;;3.17;1.87;;;;;;;20.93;72.21;100709.13;;;;-59
2021/07/08 07:42:30;;;;;;;2.81;1.85;;;;;;;20.95;72.28;100704.82;;;;-57
2021/07/08 07:45:30;;;;;;;2.09;1.84;;;;;;;20.97;72.32;100704.34;;;;-51
2021/07/08 07:48:31;;;;;;;2.20;1.95;;;;;;;20.99;72.50;100704.42;;;;-53
2021/07/08 07:51:30;;;;;;;2.08;1.89;;;;;;;21.01;72.49;100706.88;;;;-51
2021/07/08 07:54:31;;;;;;;2.05;1.85;;;;;;;21.02;72.67;100712.73;;;;-51
2021/07/08 07:57:32;;;;;;;2.09;1.85;;;;;;;21.05;72.52;100711.38;;;;-51
2021/07/08 08:01:01;;;;;;;2.29;1.86;;;;;;;21.06;72.66;100717.64;;;;-50
2021/07/08 08:03:30;;;;;;;2.49;1.87;;;;;;;21.07;72.65;100716.77;;;;-63
2021/07/08 08:09:31;;;;;;;1.99;1.84;;;;;;;21.10;72.45;100723.77;;;;-53
2021/07/08 08:12:30;;;;;;;3.85;1.86;;;;;;;21.11;72.26;100728.77;;;;-54
2021/07/08 08:15:30;;;;;;;2.93;1.93;;;;;;;21.11;72.54;100722.66;;;;-54
2021/07/08 08:18:30;;;;;;;2.38;1.77;;;;;;;21.13;72.38;100718.59;;;;-59
2021/07/08 08:21:30;;;;;;;9.29;2.15;;;;;;;21.13;72.57;100715.16;;;;-60
2021/07/08 08:24:30;;;;;;;10.47;2.20;;;;;;;21.15;72.95;100718.44;;;;-55
2021/07/08 08:27:30;;;;;;;7.70;2.01;;;;;;;21.16;72.53;100721.03;;;;-52
2021/07/08 08:30:31;;;;;;;15.62;2.08;;;;;;;21.16;72.60;100717.84;;;;-51
2021/07/08 08:33:30;;;;;;;16.21;2.49;;;;;;;21.18;72.92;100720.38;;;;-56
2021/07/08 08:36:30;;;;;;;9.01;2.21;;;;;;;21.19;73.11;100727.00;;;;-55
2021/07/08 08:39:30;;;;;;;10.09;2.33;;;;;;;21.19;73.21;100729.61;;;;-48
2021/07/08 08:42:30;;;;;;;10.43;2.13;;;;;;;21.20;73.17;100726.75;;;;-60
2021/07/08 08:45:30;;;;;;;10.83;2.19;;;;;;;21.21;73.17;100720.89;;;;-50
2021/07/08 08:48:31;;;;;;;9.15;1.99;;;;;;;21.23;73.25;100719.98;;;;-53
2021/07/08 08:51:30;;;;;;;7.74;2.13;;;;;;;21.23;73.03;100719.59;;;;-50
2021/07/08 08:54:30;;;;;;;6.55;1.99;;;;;;;21.25;72.98;100719.02;;;;-56
2021/07/08 08:57:30;;;;;;;5.78;1.90;;;;;;;21.25;72.99;100714.47;;;;-57
2021/07/08 09:00:31;;;;;;;5.88;1.93;;;;;;;21.26;73.07;100717.23;;;;-54
2021/07/08 09:03:31;;;;;;;4.76;1.77;;;;;;;21.27;72.97;100721.57;;;;-53
2021/07/08 09:06:30;;;;;;;6.28;1.83;;;;;;;21.28;72.94;100718.63;;;;-59
2021/07/08 09:09:30;;;;;;;5.88;2.01;;;;;;;21.29;72.85;100722.36;;;;-58
2021/07/08 09:12:30;;;;;;;5.25;1.94;;;;;;;21.29;72.33;100724.34;;;;-52
2021/07/08 09:15:30;;;;;;;4.80;1.89;;;;;;;21.29;72.83;100728.67;;;;-51
2021/07/08 09:18:30;;;;;;;4.06;1.80;;;;;;;21.30;72.69;100727.92;;;;-52
2021/07/08 09:21:30;;;;;;;5.23;1.81;;;;;;;21.32;72.66;100728.75;;;;-51
2021/07/08 09:24:32;;;;;;;4.03;1.84;;;;;;;21.33;72.60;100729.80;;;;-51
2021/07/08 09:27:30;;;;;;;4.85;1.97;;;;;;;21.33;72.62;100735.05;;;;-62
2021/07/08 09:30:31;;;;;;;2.86;1.89;;;;;;;21.35;72.53;100744.41;;;;-56
2021/07/08 09:33:30;;;;;;;4.05;2.02;;;;;;;21.35;72.65;100755.97;;;;-56
2021/07/08 09:36:30;;;;;;;3.93;1.88;;;;;;;21.37;72.46;100756.64;;;;-61
2021/07/08 09:39:30;;;;;;;5.06;2.01;;;;;;;21.37;72.47;100752.17;;;;-63
2021/07/08 09:42:30;;;;;;;4.83;1.79;;;;;;;21.37;72.58;100759.08;;;;-63
2021/07/08 09:45:30;;;;;;;3.29;1.82;;;;;;;21.38;72.48;100761.22;;;;-55
2021/07/08 09:48:30;;;;;;;2.51;1.75;;;;;;;21.39;72.39;100765.69;;;;-60
2021/07/08 09:51:30;;;;;;;5.66;1.77;;;;;;;21.39;72.38;100757.86;;;;-51
2021/07/08 09:54:30;;;;;;;5.97;1.73;;;;;;;21.39;72.51;100760.01;;;;-63
2021/07/08 09:57:30;;;;;;;4.49;1.78;;;;;;;21.40;72.49;100757.72;;;;-58
2021/07/08 10:00:32;;;;;;;3.45;1.60;;;;;;;21.41;72.26;100755.91;;;;-61
2021/07/08 10:03:30;;;;;;;3.79;1.73;;;;;;;21.43;72.36;100758.23;;;;-50
2021/07/08 10:06:30;;;;;;;2.47;1.75;;;;;;;21.43;72.25;100753.02;;;;-51
2021/07/08 10:09:31;;;;;;;2.57;1.66;;;;;;;21.44;72.32;100748.06;;;;-52
2021/07/08 10:12:30;;;;;;;2.94;1.79;;;;;;;21.43;72.07;100753.83;;;;-52
2021/07/08 10:15:30;;;;;;;1.94;1.60;;;;;;;21.43;72.12;100757.83;;;;-52
2021/07/08 10:18:31;;;;;;;3.95;1.71;;;;;;;21.42;72.22;100756.18;;;;-51
2021/07/08 10:21:31;;;;;;;4.09;1.63;;;;;;;21.41;72.09;100754.45;;;;-51
2021/07/08 10:24:30;;;;;;;3.09;1.79;;;;;;;21.40;72.02;100760.98;;;;-51
2021/07/08 10:27:30;;;;;;;3.11;1.77;;;;;;;21.40;72.02;100768.89;;;;-51
2021/07/08 10:30:30;;;;;;;2.49;1.60;;;;;;;21.40;71.92;100771.42;;;;-52
2021/07/08 10:33:30;;;;;;;3.23;1.61;;;;;;;21.40;71.93;100773.30;;;;-52
2021/07/08 10:36:31;;;;;;;4.11;1.87;;;;;;;21.39;71.89;100770.42;;;;-52
2021/07/08 10:39:30;;;;;;;1.92;1.70;;;;;;;21.39;71.75;100768.30;;;;-51
2021/07/08 10:42:30;;;;;;;2.65;1.56;;;;;;;21.38;71.72;100769.70;;;;-52
2021/07/08 10:45:31;;;;;;;2.96;1.53;;;;;;;21.39;71.75;100765.78;;;;-53
2021/07/08 10:48:32;;;;;;;1.75;1.63;;;;;;;21.38;71.63;100766.84;;;;-54
2021/07/08 10:51:30;;;;;;;2.38;1.55;;;;;;;21.37;71.65;100766.69;;;;-54
2021/07/08 10:54:30;;;;;;;1.61;1.51;;;;;;;21.38;71.65;100767.58;;;;-54
2021/07/08 10:57:30;;;;;;;2.79;1.80;;;;;;;21.37;71.51;100774.24;;;;-49
2021/07/08 11:00:30;;;;;;;2.09;1.59;;;;;;;21.38;71.60;100771.17;;;;-49
2021/07/08 11:03:30;;;;;;;2.00;1.59;;;;;;;21.37;71.57;100768.78;;;;-49
2021/07/08 11:06:31;;;;;;;1.68;1.46;;;;;;;21.37;71.56;100768.70;;;;-49
2021/07/08 11:09:30;;;;;;;4.17;1.65;;;;;;;21.36;71.47;100771.31;;;;-49
2021/07/08 11:12:30;;;;;;;1.52;1.42;;;;;;;21.36;71.46;100773.77;;;;-52
2021/07/08 11:15:30;;;;;;;1.83;1.54;;;;;;;21.35;71.39;100774.39;;;;-63
2021/07/08 11:18:31;;;;;;;3.41;1.73;;;;;;;21.35;71.38;100776.63;;;;-63
2021/07/08 11:21:30;;;;;;;1.97;1.50;;;;;;;21.36;71.43;100781.59;;;;-61
2021/07/08 11:24:30;;;;;;;2.59;1.73;;;;;;;21.35;71.47;100784.45;;;;-52
2021/07/08 11:27:32;;;;;;;1.84;1.65;;;;;;;21.35;71.44;100787.93;;;;-55
2021/07/08 11:30:30;;;;;;;2.81;1.70;;;;;;;21.35;71.33;100789.41;;;;-61
2021/07/08 11:33:32;;;;;;;1.81;1.55;;;;;;;21.34;71.32;100786.16;;;;-50
2021/07/08 11:36:30;;;;;;;2.43;1.59;;;;;;;21.34;71.30;100788.27;;;;-61
2021/07/08 11:39:30;;;;;;;2.72;1.60;;;;;;;21.34;71.27;100788.44;;;;-52
2021/07/08 11:42:30;;;;;;;1.70;1.60;;;;;;;21.34;71.34;100788.11;;;;-52
2021/07/08 11:45:30;;;;;;;1.63;1.53;;;;;;;21.33;71.25;100780.70;;;;-61
2021/07/08 11:48:30;;;;;;;2.32;1.53;;;;;;;21.33;71.37;100777.81;;;;-61
2021/07/08 11:51:32;;;;;;;2.47;1.58;;;;;;;21.35;71.45;100771.90;;;;-63
2021/07/08 11:54:31;;;;;;;2.37;1.56;;;;;;;21.36;71.54;100774.98;;;;-52
2021/07/08 11:57:30;;;;;;;1.67;1.50;;;;;;;21.38;71.58;100774.09;;;;-51
2021/07/08 12:00:30;;;;;;;1.51;1.41;;;;;;;21.39;71.61;100771.31;;;;-58
2021/07/08 12:03:31;;;;;;;8.98;1.91;;;;;;;21.40;71.56;100765.63;;;;-49
2021/07/08 12:06:31;;;;;;;1.64;1.53;;;;;;;21.40;71.60;100767.01;;;;-49
2021/07/08 12:09:30;;;;;;;2.38;1.50;;;;;;;21.42;71.76;100768.33;;;;-60
2021/07/08 12:12:30;;;;;;;3.27;1.65;;;;;;;21.42;71.59;100757.51;;;;-64
2021/07/08 12:15:30;;;;;;;4.15;1.70;;;;;;;21.41;71.68;100755.02;;;;-64
2021/07/08 12:18:30;;;;;;;3.51;1.71;;;;;;;21.41;71.53;100752.23;;;;-65
2021/07/08 12:21:30;;;;;;;2.71;1.59;;;;;;;21.41;71.67;100748.83;;;;-65
2021/07/08 12:24:30;;;;;;;5.73;1.67;;;;;;;21.40;71.65;100743.86;;;;-54
2021/07/08 12:27:30;;;;;;;2.66;1.59;;;;;;;21.41;71.64;100744.09;;;;-57
2021/07/08 12:30:30;;;;;;;5.16;1.65;;;;;;;21.40;71.55;100736.69;;;;-64
2021/07/08 12:33:30;;;;;;;3.35;1.70;;;;;;;21.40;71.54;100746.80;;;;-59
2021/07/08 12:36:30;;;;;;;2.69;1.81;;;;;;;21.39;71.55;100739.03;;;;-59
2021/07/08 12:39:30;;;;;;;3.97;1.72;;;;;;;21.39;71.46;100744.36;;;;-57
2021/07/08 12:42:30;;;;;;;3.69;1.83;;;;;;;21.39;71.43;100737.23;;;;-64
2021/07/08 12:45:30;;;;;;;3.38;1.81;;;;;;;21.39;71.44;100730.63;;;;-59
2021/07/08 12:48:30;;;;;;;2.65;1.49;;;;;;;21.38;71.46;100724.61;;;;-57
2021/07/08 12:51:30;;;;;;;2.72;1.57;;;;;;;21.39;71.44;100727.63;;;;-56
2021/07/08 12:54:30;;;;;;;2.71;1.71;;;;;;;21.38;71.35;100726.00;;;;-57
2021/07/08 12:57:30;;;;;;;3.12;1.60;;;;;;;21.38;71.43;100724.53;;;;-64
2021/07/08 13:00:30;;;;;;;2.01;1.47;;;;;;;21.38;71.33;100722.08;;;;-64
2021/07/08 13:03:31;;;;;;;2.75;1.65;;;;;;;21.37;71.33;100723.64;;;;-64
2021/07/08 13:06:30;;;;;;;2.57;1.55;;;;;;;21.38;71.34;100718.17;;;;-64
2021/07/08 13:09:31;;;;;;;2.30;1.63;;;;;;;21.37;71.29;100713.18;;;;-64
2021/07/08 13:12:30;;;;;;;2.38;1.62;;;;;;;21.37;71.25;100710.81;;;;-65
2021/07/08 13:15:32;;;;;;;2.83;1.59;;;;;;;21.37;71.28;100701.85;;;;-64
2021/07/08 13:18:30;;;;;;;3.85;1.61;;;;;;;21.36;71.28;100701.94;;;;-65
2021/07/08 13:21:30;;;;;;;3.01;1.54;;;;;;;21.37;71.28;100710.33;;;;-64
2021/07/08 13:24:30;;;;;;;1.67;1.54;;;;;;;21.36;71.25;100713.19;;;;-64
2021/07/08 13:27:30;;;;;;;2.49;1.67;;;;;;;21.36;71.22;100711.97;;;;-63
2021/07/08 13:30:30;;;;;;;4.77;1.81;;;;;;;21.36;71.37;100714.83;;;;-58
2021/07/08 13:33:30;;;;;;;2.74;1.73;;;;;;;21.37;71.34;100717.45;;;;-60
2021/07/08 13:36:32;;;;;;;4.56;1.73;;;;;;;21.39;71.58;100718.27;;;;-58
2021/07/08 13:39:30;;;;;;;4.97;1.75;;;;;;;21.38;71.47;100724.20;;;;-68
2021/07/08 13:42:30;;;;;;;4.63;1.59;;;;;;;21.39;71.63;100725.09;;;;-64
2021/07/08 13:45:30;;;;;;;2.89;1.59;;;;;;;21.38;71.67;100724.44;;;;-67
2021/07/08 13:48:30;;;;;;;3.93;1.73;;;;;;;21.39;71.64;100722.08;;;;-67
2021/07/08 13:51:30;;;;;;;3.87;1.71;;;;;;;21.38;71.63;100722.00;;;;-55
2021/07/08 13:54:32;;;;;;;2.83;1.60;;;;;;;21.38;71.60;100718.98;;;;-55
2021/07/08 13:57:34;;;;;;;4.20;1.57;;;;;;;21.38;71.52;100719.31;;;;-55
2021/07/08 14:00:30;;;;;;;2.27;1.47;;;;;;;21.38;71.50;100719.97;;;;-54
2021/07/08 14:03:30;;;;;;;6.51;1.70;;;;;;;21.37;71.50;100718.16;;;;-55
2021/07/08 14:06:32;;;;;;;2.38;1.75;;;;;;;21.37;71.54;100722.88;;;;-60
2021/07/08 14:09:30;;;;;;;3.88;1.64;;;;;;;21.36;71.38;100727.53;;;;-61
2021/07/08 14:12:30;;;;;;;3.63;1.60;;;;;;;21.36;71.36;100724.61;;;;-68
2021/07/08 14:15:30;;;;;;;4.12;1.67;;;;;;;21.36;71.44;100729.73;;;;-67
2021/07/08 14:18:30;;;;;;;4.84;1.68;;;;;;;21.36;71.36;100735.20;;;;-65
2021/07/08 14:21:30;;;;;;;3.16;1.72;;;;;;;21.35;71.31;100734.72;;;;-66
2021/07/08 14:24:30;;;;;;;3.26;1.70;;;;;;;21.36;71.35;100731.21;;;;-68
2021/07/08 14:27:30;;;;;;;5.70;1.61;;;;;;;21.36;71.33;100733.82;;;;-58
2021/07/08 14:30:31;;;;;;;2.18;1.59;;;;;;;21.36;71.29;100730.07;;;;-58
2021/07/08 14:33:30;;;;;;;2.00;1.67;;;;;;;21.38;71.44;100720.04;;;;-59
2021/07/08 14:36:30;;;;;;;3.49;1.85;;;;;;;21.40;71.53;100712.15;;;;-60
2021/07/08 14:39:30;;;;;;;1.93;1.69;;;;;;;21.42;71.53;100706.06;;;;-58
2021/07/08 14:42:30;;;;;;;2.40;1.58;;;;;;;21.42;71.67;100705.00;;;;-64
2021/07/08 14:45:30;;;;;;;2.53;1.64;;;;;;;21.44;71.62;100702.32;;;;-60
2021/07/08 14:48:30;;;;;;;2.90;1.60;;;;;;;21.45;71.66;100699.29;;;;-61
2021/07/08 14:51:30;;;;;;;1.90;1.55;;;;;;;21.46;71.66;100697.84;;;;-61
2021/07/08 14:54:30;;;;;;;3.26;1.52;;;;;;;21.46;71.69;100694.14;;;;-60
2021/07/08 14:57:30;;;;;;;2.49;1.50;;;;;;;21.47;71.58;100697.91;;;;-60
2021/07/08 15:00:30;;;;;;;4.45;1.53;;;;;;;21.48;71.70;100701.27;;;;-64
2021/07/08 15:03:30;;;;;;;2.67;1.50;;;;;;;21.49;71.67;100701.50;;;;-50
2021/07/08 15:06:30;;;;;;;2.28;1.52;;;;;;;21.49;71.70;100697.18;;;;-60
2021/07/08 15:09:30;;;;;;;3.65;1.59;;;;;;;21.50;71.77;100689.75;;;;-55
2021/07/08 15:12:30;;;;;;;2.21;1.68;;;;;;;21.51;71.87;100688.38;;;;-51
2021/07/08 15:15:30;;;;;;;5.67;1.73;;;;;;;21.52;71.70;100693.17;;;;-46
2021/07/08 15:18:30;;;;;;;2.27;1.69;;;;;;;21.52;71.85;100696.30;;;;-55
2021/07/08 15:21:32;;;;;;;2.16;1.63;;;;;;;21.53;71.97;100697.27;;;;-55
2021/07/08 15:24:30;;;;;;;1.74;1.62;;;;;;;21.54;71.96;100695.41;;;;-54
2021/07/08 15:27:30;;;;;;;2.57;1.70;;;;;;;21.55;71.85;100684.87;;;;-53
2021/07/08 15:30:30;;;;;;;3.83;1.77;;;;;;;21.56;71.77;100681.61;;;;-54
2021/07/08 15:33:30;;;;;;;3.81;1.93;;;;;;;21.56;71.80;100680.16;;;;-51
2021/07/08 15:36:31;;;;;;;4.26;1.70;;;;;;;21.57;71.78;100688.72;;;;-51
2021/07/08 15:39:30;;;;;;;3.40;1.65;;;;;;;21.57;71.73;100703.23;;;;-57
2021/07/08 15:42:30;;;;;;;2.59;1.70;;;;;;;21.57;71.80;100699.72;;;;-54
2021/07/08 15:45:30;;;;;;;1.65;1.55;;;;;;;21.57;71.79;100681.53;;;;-52
2021/07/08 15:48:30;;;;;;;2.65;1.75;;;;;;;21.56;71.42;100679.10;;;;-49
2021/07/08 15:51:30;;;;;;;4.62;2.31;;;;;;;21.56;71.59;100687.40;;;;-57
2021/07/08 15:54:30;;;;;;;8.31;2.03;;;;;;;21.55;71.74;100681.62;;;;-52
2021/07/08 15:57:32;;;;;;;6.74;2.19;;;;;;;21.55;71.55;100676.97;;;;-60
2021/07/08 16:00:30;;;;;;;3.16;1.99;;;;;;;21.55;71.69;100669.30;;;;-51
2021/07/08 16:03:30;;;;;;;3.47;1.91;;;;;;;21.57;71.68;100674.27;;;;-55
2021/07/08 16:06:30;;;;;;;4.49;2.00;;;;;;;21.58;71.70;100686.94;;;;-50
2021/07/08 16:09:30;;;;;;;5.37;2.08;;;;;;;21.59;71.70;100688.72;;;;-60
2021/07/08 16:12:30;;;;;;;4.32;1.83;;;;;;;21.59;71.80;100683.90;;;;-60
2021/07/08 16:15:32;;;;;;;4.25;1.96;;;;;;;21.60;71.76;100683.67;;;;-48
2021/07/08 16:18:30;;;;;;;2.03;1.82;;;;;;;21.63;71.69;100682.61;;;;-48
2021/07/08 16:21:30;;;;;;;3.02;1.99;;;;;;;21.64;71.70;100679.01;;;;-54
2021/07/08 16:24:31;;;;;;;4.86;1.79;;;;;;;21.64;71.81;100684.98;;;;-51
2021/07/08 16:27:31;;;;;;;3.81;1.87;;;;;;;21.65;71.80;100692.16;;;;-59
2021/07/08 16:30:30;;;;;;;3.35;1.85;;;;;;;21.65;71.69;100696.39;;;;-61
2021/07/08 16:33:30;;;;;;;2.25;1.85;;;;;;;21.65;71.80;100692.81;;;;-68
2021/07/08 16:36:30;;;;;;;2.77;1.80;;;;;;;21.65;71.76;100689.78;;;;-60
2021/07/08 16:39:30;;;;;;;3.77;1.77;;;;;;;21.65;71.81;100691.74;;;;-64
2021/07/08 16:42:30;;;;;;;3.07;1.69;;;;;;;21.66;71.78;100690.27;;;;-63